createdAt,value
2018-03-27T00:00:53.470Z,5.51
2018-03-27T00:03:20.895Z,5.50
2018-03-27T00:05:48.302Z,5.49
2018-03-27T00:08:15.722Z,5.49
2018-03-27T00:10:43.134Z,5.49
2018-03-27T00:13:10.554Z,5.46
2018-03-27T00:15:37.968Z,5.46
2018-03-27T00:18:05.395Z,5.48
2018-03-27T00:20:32.802Z,5.50
2018-03-27T00:23:00.235Z,5.51
2018-03-27T00:25:27.654Z,5.50
2018-03-27T00:28:06.858Z,5.54
2018-03-27T00:30:45.885Z,5.58
2018-03-27T00:33:25.237Z,5.55
2018-03-27T00:36:04.218Z,5.54
2018-03-27T00:38:43.246Z,5.46
2018-03-27T00:41:22.353Z,5.37
2018-03-27T00:43:49.810Z,5.27
2018-03-27T00:46:17.242Z,5.21
2018-03-27T00:48:44.645Z,5.16
2018-03-27T00:51:12.073Z,5.12
2018-03-27T00:53:39.483Z,5.10
2018-03-27T00:56:06.908Z,5.03
2018-03-27T00:58:34.333Z,4.98
2018-03-27T01:01:01.741Z,4.93
2018-03-27T01:03:29.462Z,4.88
2018-03-27T01:05:56.869Z,4.87
2018-03-27T01:08:24.285Z,4.85
2018-03-27T01:10:51.698Z,4.84
2018-03-27T01:13:19.107Z,4.80
2018-03-27T01:15:46.537Z,4.68
2018-03-27T01:18:13.950Z,4.63
2018-03-27T01:20:41.385Z,4.59
2018-03-27T01:23:08.778Z,4.56
2018-03-27T01:25:36.187Z,4.52
2018-03-27T01:28:03.618Z,4.50
2018-03-27T01:30:31.042Z,4.47
2018-03-27T01:32:58.463Z,4.45
2018-03-27T01:35:26.162Z,4.36
2018-03-27T01:37:53.576Z,4.32
2018-03-27T01:40:20.977Z,4.34
2018-03-27T01:42:48.398Z,4.37
2018-03-27T01:45:15.936Z,4.38
2018-03-27T01:47:43.333Z,4.41
2018-03-27T01:50:10.750Z,4.41
2018-03-27T01:52:38.178Z,4.39
2018-03-27T01:55:05.587Z,4.41
2018-03-27T01:57:33.006Z,4.45
2018-03-27T02:00:00.414Z,4.48
2018-03-27T02:02:27.839Z,4.47
2018-03-27T02:04:55.273Z,4.47
2018-03-27T02:07:22.756Z,4.44
2018-03-27T02:09:50.242Z,4.44
2018-03-27T02:12:23.391Z,4.45
2018-03-27T02:14:56.539Z,4.41
2018-03-27T02:17:29.591Z,4.36
2018-03-27T02:20:02.586Z,4.36
2018-03-27T02:22:31.822Z,4.38
2018-03-27T02:24:59.234Z,4.35
2018-03-27T02:27:26.680Z,4.24
2018-03-27T02:29:54.117Z,4.25
2018-03-27T02:32:21.541Z,4.26
2018-03-27T02:34:49.006Z,4.27
2018-03-27T02:37:16.415Z,4.28
2018-03-27T02:39:43.886Z,4.28
2018-03-27T02:42:11.318Z,4.29
2018-03-27T02:44:38.738Z,4.27
2018-03-27T02:47:06.142Z,4.25
2018-03-27T02:49:33.573Z,4.23
2018-03-27T02:52:00.985Z,4.19
2018-03-27T02:54:28.471Z,4.20
2018-03-27T02:56:55.886Z,4.19
2018-03-27T02:59:23.337Z,4.18
2018-03-27T03:01:50.764Z,4.16
2018-03-27T03:04:18.205Z,4.16
2018-03-27T03:06:45.617Z,4.18
2018-03-27T03:09:13.053Z,4.17
2018-03-27T03:11:40.475Z,4.15
2018-03-27T03:14:07.893Z,4.14
2018-03-27T03:16:35.326Z,4.08
2018-03-27T03:19:02.789Z,4.01
2018-03-27T03:21:30.157Z,3.98
2018-03-27T03:23:57.577Z,3.94
2018-03-27T03:26:25.001Z,3.90
2018-03-27T03:28:52.405Z,3.87
2018-03-27T03:31:19.828Z,3.84
2018-03-27T03:33:47.232Z,3.80
2018-03-27T03:36:14.661Z,3.76
2018-03-27T03:38:42.075Z,3.74
2018-03-27T03:41:09.489Z,3.73
2018-03-27T03:43:36.907Z,3.70
2018-03-27T03:46:04.312Z,3.68
2018-03-27T03:48:31.742Z,3.67
2018-03-27T03:50:59.141Z,3.65
2018-03-27T03:53:26.570Z,3.61
2018-03-27T03:55:54.015Z,3.61
2018-03-27T03:58:21.477Z,3.57
2018-03-27T04:00:48.887Z,3.51
2018-03-27T04:03:16.310Z,3.49
2018-03-27T04:05:43.723Z,3.50
2018-03-27T04:08:11.141Z,3.51
2018-03-27T04:10:38.548Z,3.51
2018-03-27T04:13:05.973Z,3.48
2018-03-27T04:15:33.385Z,3.46
2018-03-27T04:18:00.806Z,3.47
2018-03-27T04:20:28.222Z,3.43
2018-03-27T04:22:55.642Z,3.41
2018-03-27T04:25:23.064Z,3.38
2018-03-27T04:27:50.482Z,3.37
2018-03-27T04:30:17.921Z,3.37
2018-03-27T04:32:45.325Z,3.38
2018-03-27T04:35:12.770Z,3.39
2018-03-27T04:37:40.193Z,3.35
2018-03-27T04:40:07.642Z,3.33
2018-03-27T04:42:35.050Z,3.29
2018-03-27T04:45:02.475Z,3.26
2018-03-27T04:47:29.894Z,3.23
2018-03-27T04:49:57.303Z,3.19
2018-03-27T04:52:24.749Z,3.17
2018-03-27T04:54:52.146Z,3.15
2018-03-27T04:57:19.566Z,3.13
2018-03-27T04:59:46.972Z,3.13
2018-03-27T05:02:14.399Z,3.12
2018-03-27T05:04:41.810Z,3.13
2018-03-27T05:07:09.236Z,3.14
2018-03-27T05:09:36.655Z,3.12
2018-03-27T05:12:04.148Z,3.12
2018-03-27T05:14:31.526Z,3.11
2018-03-27T05:16:58.962Z,3.08
2018-03-27T05:19:26.360Z,3.03
2018-03-27T05:21:53.785Z,2.98
2018-03-27T05:24:21.204Z,2.95
2018-03-27T05:26:48.629Z,2.94
2018-03-27T05:29:16.041Z,2.96
2018-03-27T05:31:43.474Z,3.00
2018-03-27T05:34:10.898Z,3.05
2018-03-27T05:36:38.326Z,3.07
2018-03-27T05:39:06.642Z,3.13
2018-03-27T05:41:34.054Z,3.19
2018-03-27T05:44:01.477Z,3.26
2018-03-27T05:46:28.914Z,3.33
2018-03-27T05:48:56.330Z,3.41
2018-03-27T05:51:23.754Z,3.56
2018-03-27T05:53:51.181Z,3.91
2018-03-27T05:56:18.590Z,4.29
2018-03-27T05:58:46.014Z,4.66
2018-03-27T06:01:13.429Z,4.93
2018-03-27T06:03:40.837Z,5.07
2018-03-27T06:06:08.261Z,5.09
2018-03-27T06:08:35.667Z,5.25
2018-03-27T06:11:03.099Z,5.24
2018-03-27T06:13:30.518Z,5.35
2018-03-27T06:15:57.937Z,5.68
2018-03-27T06:18:25.363Z,6.24
2018-03-27T06:20:52.780Z,6.81
2018-03-27T06:23:20.181Z,7.27
2018-03-27T06:25:47.600Z,7.69
2018-03-27T06:28:15.006Z,7.66
2018-03-27T06:30:42.422Z,7.52
2018-03-27T06:33:10.021Z,7.39
2018-03-27T06:35:37.421Z,7.22
2018-03-27T06:38:04.829Z,7.06
2018-03-27T06:40:32.257Z,6.91
2018-03-27T06:42:59.673Z,6.83
2018-03-27T06:45:27.114Z,6.80
2018-03-27T06:47:54.537Z,6.79
2018-03-27T06:50:22.037Z,6.81
2018-03-27T06:52:49.523Z,6.76
2018-03-27T06:55:17.007Z,6.68
2018-03-27T06:57:44.530Z,6.72
2018-03-27T07:00:11.957Z,6.90
2018-03-27T07:02:40.318Z,7.20
2018-03-27T07:05:07.731Z,7.44
2018-03-27T07:07:35.807Z,7.52
2018-03-27T07:10:04.284Z,7.37
2018-03-27T07:12:34.850Z,7.39
2018-03-27T07:15:02.330Z,7.38
2018-03-27T07:17:29.770Z,7.23
2018-03-27T07:19:57.214Z,7.27
2018-03-27T07:22:24.712Z,7.32
2018-03-27T07:24:52.590Z,7.32
2018-03-27T07:27:20.007Z,7.19
2018-03-27T07:29:47.434Z,7.19
2018-03-27T07:32:14.926Z,7.14
2018-03-27T07:34:42.349Z,7.04
2018-03-27T07:37:09.781Z,6.88
2018-03-27T07:39:37.193Z,6.68
2018-03-27T07:42:04.595Z,6.68
2018-03-27T07:44:32.027Z,6.68
2018-03-27T07:46:59.481Z,6.80
2018-03-27T07:49:26.907Z,6.95
2018-03-27T07:51:54.331Z,7.00
2018-03-27T07:54:21.748Z,7.12
2018-03-27T07:56:49.205Z,7.54
2018-03-27T07:59:16.621Z,8.15
2018-03-27T08:01:44.033Z,8.59
2018-03-27T08:04:11.453Z,9.16
2018-03-27T08:06:38.862Z,10.01
2018-03-27T08:09:06.299Z,10.65
2018-03-27T08:11:33.715Z,11.12
2018-03-27T08:14:01.205Z,11.32
2018-03-27T08:16:28.610Z,11.28
2018-03-27T08:18:56.021Z,11.36
2018-03-27T08:21:23.453Z,11.55
2018-03-27T08:23:50.862Z,11.49
2018-03-27T08:26:18.284Z,11.57
2018-03-27T08:28:45.710Z,11.99
2018-03-27T08:31:13.125Z,12.31
2018-03-27T08:33:40.549Z,12.50
2018-03-27T08:36:07.986Z,12.65
2018-03-27T08:38:35.414Z,12.60
2018-03-27T08:41:02.830Z,12.75
2018-03-27T08:43:30.262Z,12.91
2018-03-27T08:45:57.693Z,13.12
2018-03-27T08:48:25.157Z,12.97
2018-03-27T08:50:52.589Z,13.21
2018-03-27T08:53:20.068Z,13.40
2018-03-27T08:55:47.512Z,13.28
2018-03-27T08:58:15.003Z,13.34
2018-03-27T09:00:42.470Z,13.42
2018-03-27T09:03:09.850Z,13.28
2018-03-27T09:05:37.281Z,13.29
2018-03-27T09:08:04.690Z,13.26
2018-03-27T09:10:32.113Z,13.25
2018-03-27T09:12:59.527Z,13.09
2018-03-27T09:15:26.961Z,13.06
2018-03-27T09:17:54.387Z,12.85
2018-03-27T09:20:21.814Z,12.87
2018-03-27T09:22:49.242Z,12.86
2018-03-27T09:25:16.649Z,12.97
2018-03-27T09:27:44.107Z,13.25
2018-03-27T09:30:11.521Z,12.68
2018-03-27T09:32:38.934Z,12.54
2018-03-27T09:35:07.000Z,12.34
2018-03-27T09:37:34.454Z,12.33
2018-03-27T09:40:01.897Z,12.28
2018-03-27T09:42:29.311Z,12.21
2018-03-27T09:44:57.607Z,12.12
2018-03-27T09:47:25.079Z,11.95
2018-03-27T09:49:52.516Z,11.95
2018-03-27T09:52:19.972Z,11.86
2018-03-27T09:54:47.410Z,11.94
2018-03-27T09:57:14.819Z,11.99
2018-03-27T09:59:42.296Z,12.03
2018-03-27T10:02:09.715Z,12.22
2018-03-27T10:04:37.145Z,12.16
2018-03-27T10:07:05.362Z,11.95
2018-03-27T10:09:32.836Z,11.95
2018-03-27T10:12:00.249Z,11.89
2018-03-27T10:14:27.678Z,11.85
2018-03-27T10:16:55.138Z,11.85
2018-03-27T10:19:22.596Z,11.72
2018-03-27T10:21:50.041Z,11.79
2018-03-27T10:24:17.485Z,11.86
2018-03-27T10:26:44.955Z,11.90
2018-03-27T10:29:12.508Z,11.95
2018-03-27T10:31:39.933Z,11.98
2018-03-27T10:34:07.373Z,11.95
2018-03-27T10:36:34.782Z,11.90
2018-03-27T10:39:02.216Z,11.69
2018-03-27T10:41:29.629Z,11.72
2018-03-27T10:43:57.430Z,11.42
2018-03-27T10:46:24.853Z,11.47
2018-03-27T10:48:52.273Z,11.49
2018-03-27T10:51:19.698Z,11.55
2018-03-27T10:53:47.140Z,11.65
2018-03-27T10:56:14.572Z,11.73
2018-03-27T10:58:41.989Z,11.79
2018-03-27T11:01:09.430Z,11.83
2018-03-27T11:03:36.855Z,11.89
2018-03-27T11:06:04.281Z,11.56
2018-03-27T11:08:31.690Z,11.46
2018-03-27T11:10:59.440Z,11.41
2018-03-27T11:13:26.890Z,11.38
2018-03-27T11:15:54.338Z,11.37
2018-03-27T11:18:21.865Z,11.30
2018-03-27T11:20:49.289Z,11.15
2018-03-27T11:23:16.713Z,11.39
2018-03-27T11:25:44.133Z,11.64
2018-03-27T11:28:11.566Z,11.69
2018-03-27T11:30:38.987Z,11.74
2018-03-27T11:33:06.407Z,11.69
2018-03-27T11:35:33.825Z,11.72
2018-03-27T11:38:06.792Z,11.83
2018-03-27T11:40:34.258Z,11.77
2018-03-27T11:43:01.678Z,11.67
2018-03-27T11:45:29.128Z,11.49
2018-03-27T11:47:56.583Z,11.64
2018-03-27T11:50:24.178Z,11.55
2018-03-27T11:52:51.590Z,11.63
2018-03-27T11:55:19.006Z,11.73
2018-03-27T11:57:46.442Z,11.71
2018-03-27T12:00:13.855Z,11.72
2018-03-27T12:02:41.280Z,11.92
2018-03-27T12:05:08.695Z,11.84
2018-03-27T12:07:36.126Z,12.03
2018-03-27T12:10:03.538Z,12.19
2018-03-27T12:12:30.954Z,12.10
2018-03-27T12:14:58.382Z,11.89
2018-03-27T12:17:25.791Z,12.02
2018-03-27T12:19:53.203Z,12.19
2018-03-27T12:22:20.630Z,12.42
2018-03-27T12:24:48.044Z,12.43
2018-03-27T12:27:15.453Z,12.39
2018-03-27T12:29:42.878Z,12.31
2018-03-27T12:32:10.293Z,12.47
2018-03-27T12:34:37.712Z,12.64
2018-03-27T12:37:05.116Z,12.75
2018-03-27T12:39:32.549Z,12.72
2018-03-27T12:41:59.972Z,12.62
2018-03-27T12:44:27.452Z,12.80
2018-03-27T12:46:54.886Z,12.98
2018-03-27T12:49:22.366Z,13.15
2018-03-27T12:51:49.808Z,13.34
2018-03-27T12:54:17.215Z,13.41
2018-03-27T12:56:44.637Z,13.50
2018-03-27T12:59:12.062Z,13.51
2018-03-27T13:01:39.469Z,13.67
2018-03-27T13:04:06.890Z,13.77
2018-03-27T13:06:34.294Z,13.79
2018-03-27T13:09:01.719Z,13.70
2018-03-27T13:11:29.129Z,13.78
2018-03-27T13:13:56.544Z,13.88
2018-03-27T13:16:23.972Z,14.00
2018-03-27T13:18:51.382Z,14.07
2018-03-27T13:21:18.797Z,13.69
2018-03-27T13:23:46.210Z,13.76
2018-03-27T13:26:13.641Z,13.67
2018-03-27T13:28:41.046Z,13.59
2018-03-27T13:31:08.761Z,13.54
2018-03-27T13:33:36.165Z,13.51
2018-03-27T13:36:03.575Z,13.50
2018-03-27T13:38:30.994Z,13.42
2018-03-27T13:40:58.430Z,13.43
2018-03-27T13:43:25.849Z,13.24
2018-03-27T13:45:53.290Z,13.12
2018-03-27T13:48:20.720Z,13.14
2018-03-27T13:50:48.146Z,13.15
2018-03-27T13:53:15.574Z,13.27
2018-03-27T13:55:43.001Z,13.31
2018-03-27T13:58:10.425Z,13.13
2018-03-27T14:00:37.835Z,13.17
2018-03-27T14:03:05.261Z,13.19
2018-03-27T14:05:32.672Z,13.21
2018-03-27T14:08:00.102Z,13.20
2018-03-27T14:10:27.505Z,13.22
2018-03-27T14:12:54.959Z,13.23
2018-03-27T14:15:22.403Z,13.27
2018-03-27T14:17:49.868Z,13.24
2018-03-27T14:20:17.285Z,13.13
2018-03-27T14:22:44.715Z,12.98
2018-03-27T14:25:12.123Z,12.83
2018-03-27T14:27:39.537Z,12.90
2018-03-27T14:30:06.941Z,12.85
2018-03-27T14:32:34.370Z,12.76
2018-03-27T14:35:01.779Z,12.58
2018-03-27T14:37:29.204Z,12.56
2018-03-27T14:39:56.610Z,12.45
2018-03-27T14:42:24.030Z,12.17
2018-03-27T14:44:51.463Z,12.18
2018-03-27T14:47:18.870Z,12.18
2018-03-27T14:49:46.299Z,12.20
2018-03-27T14:52:13.699Z,12.07
2018-03-27T14:54:41.121Z,11.95
2018-03-27T14:57:08.533Z,11.92
2018-03-27T14:59:35.945Z,11.79
2018-03-27T15:02:03.362Z,11.74
2018-03-27T15:04:30.797Z,11.72
2018-03-27T15:06:58.262Z,11.70
2018-03-27T15:09:25.774Z,11.68
2018-03-27T15:11:53.236Z,11.65
2018-03-27T15:14:20.722Z,11.61
2018-03-27T15:16:48.642Z,11.58
2018-03-27T15:19:16.070Z,11.57
2018-03-27T15:21:43.493Z,11.51
2018-03-27T15:24:10.906Z,11.39
2018-03-27T15:26:38.344Z,11.40
2018-03-27T15:29:05.750Z,11.37
2018-03-27T15:31:33.191Z,11.42
2018-03-27T15:34:00.622Z,11.58
2018-03-27T15:36:28.085Z,11.61
2018-03-27T15:38:55.510Z,11.70
2018-03-27T15:41:22.950Z,11.82
2018-03-27T15:43:50.419Z,11.75
2018-03-27T15:46:17.853Z,11.86
2018-03-27T15:48:45.361Z,11.84
2018-03-27T15:51:12.795Z,11.77
2018-03-27T15:53:40.197Z,11.68
2018-03-27T15:56:07.629Z,11.66
2018-03-27T15:58:35.024Z,11.61
2018-03-27T16:01:02.456Z,11.63
2018-03-27T16:03:29.880Z,11.50
2018-03-27T16:05:57.313Z,11.57
2018-03-27T16:08:24.718Z,11.58
2018-03-27T16:10:52.125Z,11.58
2018-03-27T16:13:19.567Z,11.47
2018-03-27T16:15:46.945Z,11.52
2018-03-27T16:18:14.418Z,11.52
2018-03-27T16:20:41.882Z,11.47
2018-03-27T16:23:09.243Z,11.39
2018-03-27T16:25:36.649Z,11.34
2018-03-27T16:28:04.078Z,11.33
2018-03-27T16:30:31.492Z,11.32
2018-03-27T16:32:58.911Z,11.33
2018-03-27T16:35:26.324Z,11.32
2018-03-27T16:37:53.794Z,11.32
2018-03-27T16:40:21.166Z,11.33
2018-03-27T16:42:48.644Z,11.29
2018-03-27T16:45:16.070Z,11.25
2018-03-27T16:47:43.497Z,11.24
2018-03-27T16:50:10.914Z,11.18
2018-03-27T16:52:38.348Z,11.15
2018-03-27T16:55:05.762Z,11.12
2018-03-27T16:57:33.180Z,11.15
2018-03-27T17:00:00.634Z,11.20
2018-03-27T17:02:28.099Z,11.30
2018-03-27T17:04:55.569Z,11.32
2018-03-27T17:07:23.064Z,11.32
2018-03-27T17:09:58.438Z,11.31
2018-03-27T17:12:25.894Z,11.26
2018-03-27T17:15:06.864Z,11.23
2018-03-27T17:17:34.316Z,11.16
2018-03-27T17:20:01.734Z,11.17
2018-03-27T17:22:29.148Z,11.13
2018-03-27T17:24:56.627Z,11.10
2018-03-27T17:27:24.034Z,11.10
2018-03-27T17:29:51.464Z,11.20
2018-03-27T17:32:18.867Z,11.19
2018-03-27T17:34:46.302Z,11.11
2018-03-27T17:37:13.781Z,11.01
2018-03-27T17:39:41.134Z,10.84
2018-03-27T17:42:08.560Z,10.85
2018-03-27T17:44:36.452Z,10.84
2018-03-27T17:47:03.858Z,10.88
2018-03-27T17:49:31.453Z,10.88
2018-03-27T17:51:58.911Z,10.88
2018-03-27T17:54:26.364Z,10.86
2018-03-27T17:56:53.845Z,10.75
2018-03-27T17:59:21.290Z,10.64
2018-03-27T18:01:48.790Z,10.56
2018-03-27T18:04:16.222Z,10.45
2018-03-27T18:06:43.702Z,10.32
2018-03-27T18:09:11.129Z,10.26
2018-03-27T18:11:38.561Z,10.16
2018-03-27T18:14:05.969Z,10.02
2018-03-27T18:16:33.395Z,9.96
2018-03-27T18:19:00.797Z,9.97
2018-03-27T18:21:28.254Z,9.90
2018-03-27T18:23:55.682Z,9.80
2018-03-27T18:26:23.094Z,9.70
2018-03-27T18:28:50.505Z,9.60
2018-03-27T18:31:17.953Z,9.50
2018-03-27T18:33:45.357Z,9.37
2018-03-27T18:36:12.755Z,9.30
2018-03-27T18:38:40.181Z,9.22
2018-03-27T18:41:07.598Z,9.13
2018-03-27T18:43:35.018Z,9.06
2018-03-27T18:46:02.432Z,8.97
2018-03-27T18:48:29.845Z,8.93
2018-03-27T18:50:57.292Z,8.96
2018-03-27T18:53:24.693Z,8.92
2018-03-27T18:55:52.090Z,8.92
2018-03-27T18:58:19.507Z,8.91
2018-03-27T19:00:46.906Z,8.90
2018-03-27T19:03:14.609Z,8.92
2018-03-27T19:05:42.013Z,8.86
2018-03-27T19:08:09.425Z,8.80
2018-03-27T19:10:36.845Z,8.79
2018-03-27T19:13:04.291Z,8.78
2018-03-27T19:15:31.727Z,8.87
2018-03-27T19:17:59.251Z,8.85
2018-03-27T19:20:26.757Z,8.84
2018-03-27T19:22:54.295Z,8.80
2018-03-27T19:25:22.172Z,8.78
2018-03-27T19:27:50.359Z,8.75
2018-03-27T19:30:17.988Z,8.70
2018-03-27T19:32:45.426Z,8.68
2018-03-27T19:35:12.829Z,8.54
2018-03-27T19:37:40.526Z,8.52
2018-03-27T19:40:07.929Z,8.53
2018-03-27T19:42:35.351Z,8.56
2018-03-27T19:45:02.765Z,8.51
2018-03-27T19:47:30.169Z,8.56
2018-03-27T19:49:57.597Z,8.59
2018-03-27T19:52:25.109Z,8.59
2018-03-27T19:54:52.492Z,8.58
2018-03-27T19:57:19.977Z,8.55
2018-03-27T19:59:47.506Z,8.49
2018-03-27T20:02:14.985Z,8.47
2018-03-27T20:04:42.381Z,8.47
2018-03-27T20:07:09.796Z,8.48
2018-03-27T20:09:37.212Z,8.46
2018-03-27T20:12:04.769Z,8.47
2018-03-27T20:14:32.173Z,8.42
2018-03-27T20:16:59.615Z,8.40
2018-03-27T20:19:27.046Z,8.39
2018-03-27T20:21:54.502Z,8.39
2018-03-27T20:24:22.026Z,8.36
2018-03-27T20:26:49.831Z,8.38
2018-03-27T20:29:17.233Z,8.36
2018-03-27T20:31:44.655Z,8.36
2018-03-27T20:34:12.072Z,8.37
2018-03-27T20:36:39.493Z,8.41
2018-03-27T20:39:06.898Z,8.45
2018-03-27T20:41:34.313Z,8.48
2018-03-27T20:44:01.738Z,8.44
2018-03-27T20:46:29.272Z,8.44
2018-03-27T20:48:56.783Z,8.45
2018-03-27T20:51:24.210Z,8.40
2018-03-27T20:53:51.717Z,8.41
2018-03-27T20:56:20.220Z,8.44
2018-03-27T20:58:47.828Z,8.45
2018-03-27T21:01:15.226Z,8.46
2018-03-27T21:03:42.699Z,8.46
2018-03-27T21:06:10.077Z,8.45
2018-03-27T21:08:37.622Z,8.46
2018-03-27T21:11:05.110Z,8.44
2018-03-27T21:13:32.509Z,8.44
2018-03-27T21:16:00.095Z,8.46
2018-03-27T21:18:27.604Z,8.45
2018-03-27T21:20:55.181Z,8.48
2018-03-27T21:23:22.919Z,8.52
2018-03-27T21:25:50.415Z,8.56
2018-03-27T21:28:17.838Z,8.55
2018-03-27T21:30:45.402Z,8.57
2018-03-27T21:33:12.811Z,8.58
2018-03-27T21:35:40.235Z,8.61
2018-03-27T21:38:07.674Z,8.65
2018-03-27T21:40:35.104Z,8.72
2018-03-27T21:43:02.538Z,8.69
2018-03-27T21:45:30.283Z,8.65
2018-03-27T21:47:57.782Z,8.55
2018-03-27T21:50:25.250Z,8.51
2018-03-27T21:52:52.825Z,8.45
2018-03-27T21:55:20.381Z,8.45
2018-03-27T21:57:47.893Z,8.41
2018-03-27T22:00:15.314Z,8.37
2018-03-27T22:02:42.785Z,8.38
2018-03-27T22:05:10.190Z,8.38
2018-03-27T22:07:37.620Z,8.36
2018-03-27T22:10:05.210Z,8.34
2018-03-27T22:12:32.618Z,8.32
2018-03-27T22:15:00.075Z,8.29
2018-03-27T22:17:27.609Z,8.24
2018-03-27T22:19:55.071Z,8.26
2018-03-27T22:22:22.730Z,8.26
2018-03-27T22:24:50.188Z,8.27
2018-03-27T22:27:17.608Z,8.30
2018-03-27T22:29:45.054Z,8.33
2018-03-27T22:32:12.500Z,8.29
2018-03-27T22:34:39.978Z,8.30
2018-03-27T22:37:07.331Z,8.24
2018-03-27T22:39:34.725Z,8.28
2018-03-27T22:42:02.155Z,8.27
2018-03-27T22:44:29.580Z,8.28
2018-03-27T22:46:56.998Z,8.31
2018-03-27T22:49:24.497Z,8.32
2018-03-27T22:51:51.986Z,8.26
2018-03-27T22:54:19.428Z,8.31
2018-03-27T22:56:46.839Z,8.34
2018-03-27T22:59:14.384Z,8.35
2018-03-27T23:01:41.777Z,8.33
2018-03-27T23:04:09.250Z,8.38
2018-03-27T23:06:36.682Z,8.37
2018-03-27T23:09:04.106Z,8.36
2018-03-27T23:11:31.519Z,8.40
2018-03-27T23:13:58.962Z,8.40
2018-03-27T23:16:26.450Z,8.35
2018-03-27T23:18:53.955Z,8.38
2018-03-27T23:21:21.536Z,8.34
2018-03-27T23:23:48.975Z,8.38
2018-03-27T23:26:16.375Z,8.41
2018-03-27T23:28:43.807Z,8.44
2018-03-27T23:31:11.251Z,8.44
2018-03-27T23:33:38.658Z,8.45
2018-03-27T23:36:06.091Z,8.40
2018-03-27T23:38:33.494Z,8.40
2018-03-27T23:41:00.909Z,8.45
2018-03-27T23:43:28.369Z,8.40
2018-03-27T23:45:55.898Z,8.44
2018-03-27T23:48:23.369Z,8.41
2018-03-27T23:50:50.909Z,8.44
2018-03-27T23:53:18.356Z,8.38
2018-03-27T23:55:45.776Z,8.39
2018-03-27T23:58:13.183Z,8.34
